sensor_id;sensor_type;location;lat;lon;timestamp;P1;durP1;ratioP1;P2;durP2;ratioP2
49860;SDS011;35761;48.826;9.238;2022-12-07T00:01:43;9.15;;;6.70;;
49860;SDS011;35761;48.826;9.238;2022-12-07T00:04:13;10.38;;;7.28;;
49860;SDS011;35761;48.826;9.238;2022-12-07T00:06:44;10.20;;;7.63;;
49860;SDS011;35761;48.826;9.238;2022-12-07T00:09:15;9.93;;;7.07;;
49860;SDS011;35761;48.826;9.238;2022-12-07T00:11:47;9.88;;;6.93;;
49860;SDS011;35761;48.826;9.238;2022-12-07T00:14:19;9.32;;;6.63;;
49860;SDS011;35761;48.826;9.238;2022-12-07T00:16:51;10.65;;;6.78;;
49860;SDS011;35761;48.826;9.238;2022-12-07T00:19:20;11.80;;;7.07;;
49860;SDS011;35761;48.826;9.238;2022-12-07T00:21:49;10.50;;;7.38;;
49860;SDS011;35761;48.826;9.238;2022-12-07T00:24:21;13.32;;;6.93;;
49860;SDS011;35761;48.826;9.238;2022-12-07T00:26:50;11.60;;;7.43;;
49860;SDS011;35761;48.826;9.238;2022-12-07T00:29:20;13.02;;;7.28;;
49860;SDS011;35761;48.826;9.238;2022-12-07T00:31:50;11.82;;;7.45;;
49860;SDS011;35761;48.826;9.238;2022-12-07T00:34:19;13.10;;;8.05;;
49860;SDS011;35761;48.826;9.238;2022-12-07T00:36:49;11.50;;;7.78;;
49860;SDS011;35761;48.826;9.238;2022-12-07T00:39:17;12.13;;;7.70;;
49860;SDS011;35761;48.826;9.238;2022-12-07T00:41:46;11.15;;;7.55;;
49860;SDS011;35761;48.826;9.238;2022-12-07T00:44:15;11.77;;;7.93;;
49860;SDS011;35761;48.826;9.238;2022-12-07T00:46:45;12.45;;;8.20;;
49860;SDS011;35761;48.826;9.238;2022-12-07T00:49:14;13.77;;;8.43;;
49860;SDS011;35761;48.826;9.238;2022-12-07T00:51:43;11.98;;;7.65;;
49860;SDS011;35761;48.826;9.238;2022-12-07T00:54:12;12.57;;;7.97;;
49860;SDS011;35761;48.826;9.238;2022-12-07T00:56:41;10.75;;;7.10;;
49860;SDS011;35761;48.826;9.238;2022-12-07T00:59:10;11.65;;;7.50;;
49860;SDS011;35761;48.826;9.238;2022-12-07T01:01:41;10.18;;;7.70;;
49860;SDS011;35761;48.826;9.238;2022-12-07T01:04:12;10.77;;;7.80;;
49860;SDS011;35761;48.826;9.238;2022-12-07T01:06:40;12.02;;;7.93;;
49860;SDS011;35761;48.826;9.238;2022-12-07T01:09:09;12.07;;;8.00;;
49860;SDS011;35761;48.826;9.238;2022-12-07T01:11:38;12.27;;;8.13;;
49860;SDS011;35761;48.826;9.238;2022-12-07T01:14:08;12.32;;;7.93;;
49860;SDS011;35761;48.826;9.238;2022-12-07T01:16:38;13.75;;;9.65;;
49860;SDS011;35761;48.826;9.238;2022-12-07T01:19:07;19.15;;;13.07;;
49860;SDS011;35761;48.826;9.238;2022-12-07T01:21:38;13.57;;;8.80;;
49860;SDS011;35761;48.826;9.238;2022-12-07T01:24:08;12.75;;;8.55;;
49860;SDS011;35761;48.826;9.238;2022-12-07T01:26:38;14.13;;;8.48;;
49860;SDS011;35761;48.826;9.238;2022-12-07T01:29:07;12.63;;;8.13;;
49860;SDS011;35761;48.826;9.238;2022-12-07T01:31:36;11.75;;;8.68;;
49860;SDS011;35761;48.826;9.238;2022-12-07T01:34:05;11.95;;;8.70;;
49860;SDS011;35761;48.826;9.238;2022-12-07T01:36:34;11.55;;;7.65;;
49860;SDS011;35761;48.826;9.238;2022-12-07T01:39:06;12.52;;;8.30;;
49860;SDS011;35761;48.826;9.238;2022-12-07T01:41:37;13.77;;;8.55;;
49860;SDS011;35761;48.826;9.238;2022-12-07T01:44:11;13.27;;;8.43;;
49860;SDS011;35761;48.826;9.238;2022-12-07T01:49:16;11.52;;;8.43;;
49860;SDS011;35761;48.826;9.238;2022-12-07T01:51:48;12.10;;;8.50;;
49860;SDS011;35761;48.826;9.238;2022-12-07T01:54:19;11.75;;;8.13;;
49860;SDS011;35761;48.826;9.238;2022-12-07T01:56:50;12.70;;;8.80;;
49860;SDS011;35761;48.826;9.238;2022-12-07T01:59:19;13.70;;;8.60;;
49860;SDS011;35761;48.826;9.238;2022-12-07T02:01:51;13.65;;;8.85;;
49860;SDS011;35761;48.826;9.238;2022-12-07T02:04:21;12.65;;;8.02;;
49860;SDS011;35761;48.826;9.238;2022-12-07T02:06:50;13.82;;;9.25;;
49860;SDS011;35761;48.826;9.238;2022-12-07T02:09:21;14.20;;;8.70;;
49860;SDS011;35761;48.826;9.238;2022-12-07T02:11:50;15.55;;;9.32;;
49860;SDS011;35761;48.826;9.238;2022-12-07T02:14:19;13.15;;;8.90;;
49860;SDS011;35761;48.826;9.238;2022-12-07T02:16:52;12.50;;;8.63;;
49860;SDS011;35761;48.826;9.238;2022-12-07T02:19:33;12.70;;;7.95;;
49860;SDS011;35761;48.826;9.238;2022-12-07T02:22:18;13.00;;;8.35;;
49860;SDS011;35761;48.826;9.238;2022-12-07T02:25:00;16.67;;;8.85;;
49860;SDS011;35761;48.826;9.238;2022-12-07T02:27:37;11.68;;;8.63;;
49860;SDS011;35761;48.826;9.238;2022-12-07T02:30:12;12.18;;;8.38;;
49860;SDS011;35761;48.826;9.238;2022-12-07T02:32:44;14.07;;;8.57;;
49860;SDS011;35761;48.826;9.238;2022-12-07T02:35:19;14.02;;;8.70;;
49860;SDS011;35761;48.826;9.238;2022-12-07T02:37:53;13.93;;;8.98;;
49860;SDS011;35761;48.826;9.238;2022-12-07T02:40:28;14.15;;;8.82;;
49860;SDS011;35761;48.826;9.238;2022-12-07T02:43:01;14.68;;;8.88;;
49860;SDS011;35761;48.826;9.238;2022-12-07T02:45:33;12.45;;;8.45;;
49860;SDS011;35761;48.826;9.238;2022-12-07T02:48:03;11.73;;;7.97;;
49860;SDS011;35761;48.826;9.238;2022-12-07T02:50:32;13.40;;;8.05;;
49860;SDS011;35761;48.826;9.238;2022-12-07T02:53:01;12.40;;;8.30;;
49860;SDS011;35761;48.826;9.238;2022-12-07T02:55:31;13.20;;;8.60;;
49860;SDS011;35761;48.826;9.238;2022-12-07T02:58:17;14.60;;;8.20;;
49860;SDS011;35761;48.826;9.238;2022-12-07T03:00:54;11.48;;;8.13;;
49860;SDS011;35761;48.826;9.238;2022-12-07T03:03:27;12.45;;;8.13;;
49860;SDS011;35761;48.826;9.238;2022-12-07T03:06:03;12.10;;;8.38;;
49860;SDS011;35761;48.826;9.238;2022-12-07T03:08:39;12.63;;;8.43;;
49860;SDS011;35761;48.826;9.238;2022-12-07T03:11:13;11.32;;;7.70;;
49860;SDS011;35761;48.826;9.238;2022-12-07T03:13:48;13.57;;;8.40;;
49860;SDS011;35761;48.826;9.238;2022-12-07T03:16:20;12.55;;;8.05;;
49860;SDS011;35761;48.826;9.238;2022-12-07T03:18:53;11.75;;;8.18;;
49860;SDS011;35761;48.826;9.238;2022-12-07T03:21:24;11.05;;;7.82;;
49860;SDS011;35761;48.826;9.238;2022-12-07T03:23:55;14.95;;;8.65;;
49860;SDS011;35761;48.826;9.238;2022-12-07T03:26:28;12.43;;;8.07;;
49860;SDS011;35761;48.826;9.238;2022-12-07T03:29:00;13.75;;;8.50;;
49860;SDS011;35761;48.826;9.238;2022-12-07T03:31:34;12.50;;;8.02;;
49860;SDS011;35761;48.826;9.238;2022-12-07T03:34:06;14.13;;;8.38;;
49860;SDS011;35761;48.826;9.238;2022-12-07T03:36:39;13.02;;;7.95;;
49860;SDS011;35761;48.826;9.238;2022-12-07T03:39:13;16.40;;;8.30;;
49860;SDS011;35761;48.826;9.238;2022-12-07T03:41:47;11.63;;;8.00;;
49860;SDS011;35761;48.826;9.238;2022-12-07T03:44:16;13.00;;;8.32;;
49860;SDS011;35761;48.826;9.238;2022-12-07T03:46:48;12.43;;;8.10;;
49860;SDS011;35761;48.826;9.238;2022-12-07T03:51:51;12.77;;;8.23;;
49860;SDS011;35761;48.826;9.238;2022-12-07T03:54:23;16.65;;;9.15;;
49860;SDS011;35761;48.826;9.238;2022-12-07T03:56:54;14.10;;;8.77;;
49860;SDS011;35761;48.826;9.238;2022-12-07T03:59:23;12.30;;;8.50;;
49860;SDS011;35761;48.826;9.238;2022-12-07T04:01:55;10.63;;;7.70;;
49860;SDS011;35761;48.826;9.238;2022-12-07T04:04:25;12.00;;;8.07;;
49860;SDS011;35761;48.826;9.238;2022-12-07T04:06:54;14.50;;;8.30;;
49860;SDS011;35761;48.826;9.238;2022-12-07T04:09:23;11.88;;;7.93;;
49860;SDS011;35761;48.826;9.238;2022-12-07T04:11:52;12.18;;;8.00;;
49860;SDS011;35761;48.826;9.238;2022-12-07T04:14:21;14.68;;;8.70;;
49860;SDS011;35761;48.826;9.238;2022-12-07T04:16:51;15.02;;;9.85;;
49860;SDS011;35761;48.826;9.238;2022-12-07T04:19:24;13.30;;;8.10;;
49860;SDS011;35761;48.826;9.238;2022-12-07T04:21:54;13.65;;;8.32;;
49860;SDS011;35761;48.826;9.238;2022-12-07T04:24:24;12.35;;;8.25;;
49860;SDS011;35761;48.826;9.238;2022-12-07T04:26:53;12.20;;;7.70;;
49860;SDS011;35761;48.826;9.238;2022-12-07T04:29:22;13.98;;;8.55;;
49860;SDS011;35761;48.826;9.238;2022-12-07T04:31:51;13.98;;;8.82;;
49860;SDS011;35761;48.826;9.238;2022-12-07T04:34:20;13.65;;;8.38;;
49860;SDS011;35761;48.826;9.238;2022-12-07T04:36:50;20.75;;;9.20;;
49860;SDS011;35761;48.826;9.238;2022-12-07T04:39:20;12.52;;;8.68;;
49860;SDS011;35761;48.826;9.238;2022-12-07T04:41:49;13.35;;;9.00;;
49860;SDS011;35761;48.826;9.238;2022-12-07T04:44:19;14.38;;;9.15;;
49860;SDS011;35761;48.826;9.238;2022-12-07T04:46:48;11.90;;;8.32;;
49860;SDS011;35761;48.826;9.238;2022-12-07T04:49:17;15.55;;;8.40;;
49860;SDS011;35761;48.826;9.238;2022-12-07T04:51:47;13.93;;;7.82;;
49860;SDS011;35761;48.826;9.238;2022-12-07T04:54:17;14.10;;;8.70;;
49860;SDS011;35761;48.826;9.238;2022-12-07T04:56:46;13.82;;;7.93;;
49860;SDS011;35761;48.826;9.238;2022-12-07T04:59:15;13.98;;;8.52;;
49860;SDS011;35761;48.826;9.238;2022-12-07T05:01:44;12.57;;;8.18;;
49860;SDS011;35761;48.826;9.238;2022-12-07T05:04:13;15.98;;;8.13;;
49860;SDS011;35761;48.826;9.238;2022-12-07T05:06:44;11.10;;;7.35;;
49860;SDS011;35761;48.826;9.238;2022-12-07T05:09:13;36.38;;;20.42;;
49860;SDS011;35761;48.826;9.238;2022-12-07T05:11:43;23.48;;;13.05;;
49860;SDS011;35761;48.826;9.238;2022-12-07T05:14:13;24.60;;;14.50;;
49860;SDS011;35761;48.826;9.238;2022-12-07T05:16:43;17.25;;;8.25;;
49860;SDS011;35761;48.826;9.238;2022-12-07T05:19:14;13.52;;;8.35;;
49860;SDS011;35761;48.826;9.238;2022-12-07T05:21:43;12.15;;;8.25;;
49860;SDS011;35761;48.826;9.238;2022-12-07T05:24:12;12.93;;;8.43;;
49860;SDS011;35761;48.826;9.238;2022-12-07T05:26:41;11.38;;;7.90;;
49860;SDS011;35761;48.826;9.238;2022-12-07T05:29:16;12.03;;;8.77;;
49860;SDS011;35761;48.826;9.238;2022-12-07T05:31:48;11.82;;;7.88;;
49860;SDS011;35761;48.826;9.238;2022-12-07T05:34:17;13.68;;;8.55;;
49860;SDS011;35761;48.826;9.238;2022-12-07T05:36:46;12.25;;;7.45;;
49860;SDS011;35761;48.826;9.238;2022-12-07T05:39:16;12.02;;;7.97;;
49860;SDS011;35761;48.826;9.238;2022-12-07T05:41:47;12.35;;;8.38;;
49860;SDS011;35761;48.826;9.238;2022-12-07T05:44:33;12.65;;;8.00;;
49860;SDS011;35761;48.826;9.238;2022-12-07T05:47:02;13.32;;;8.98;;
49860;SDS011;35761;48.826;9.238;2022-12-07T05:49:31;12.93;;;8.68;;
49860;SDS011;35761;48.826;9.238;2022-12-07T05:52:03;11.65;;;8.60;;
49860;SDS011;35761;48.826;9.238;2022-12-07T05:54:32;13.95;;;9.05;;
49860;SDS011;35761;48.826;9.238;2022-12-07T05:57:03;13.38;;;9.13;;
49860;SDS011;35761;48.826;9.238;2022-12-07T05:59:34;15.85;;;10.05;;
49860;SDS011;35761;48.826;9.238;2022-12-07T06:02:03;16.98;;;10.00;;
49860;SDS011;35761;48.826;9.238;2022-12-07T06:04:33;16.95;;;11.30;;
49860;SDS011;35761;48.826;9.238;2022-12-07T06:07:04;15.77;;;10.25;;
49860;SDS011;35761;48.826;9.238;2022-12-07T06:09:34;13.70;;;8.55;;
49860;SDS011;35761;48.826;9.238;2022-12-07T06:12:04;20.13;;;9.23;;
49860;SDS011;35761;48.826;9.238;2022-12-07T06:14:51;12.57;;;8.52;;
49860;SDS011;35761;48.826;9.238;2022-12-07T06:17:19;17.40;;;8.63;;
49860;SDS011;35761;48.826;9.238;2022-12-07T06:19:48;13.73;;;9.13;;
49860;SDS011;35761;48.826;9.238;2022-12-07T06:22:17;11.13;;;7.90;;
49860;SDS011;35761;48.826;9.238;2022-12-07T06:24:46;12.52;;;8.02;;
49860;SDS011;35761;48.826;9.238;2022-12-07T06:27:16;16.48;;;7.75;;
49860;SDS011;35761;48.826;9.238;2022-12-07T06:29:48;13.68;;;8.40;;
49860;SDS011;35761;48.826;9.238;2022-12-07T06:32:18;14.90;;;8.68;;
49860;SDS011;35761;48.826;9.238;2022-12-07T06:34:46;12.75;;;8.50;;
49860;SDS011;35761;48.826;9.238;2022-12-07T06:37:15;16.95;;;9.07;;
49860;SDS011;35761;48.826;9.238;2022-12-07T06:39:44;15.07;;;8.80;;
49860;SDS011;35761;48.826;9.238;2022-12-07T06:42:13;16.73;;;9.55;;
49860;SDS011;35761;48.826;9.238;2022-12-07T06:44:43;13.38;;;8.73;;
49860;SDS011;35761;48.826;9.238;2022-12-07T06:47:12;15.90;;;9.68;;
49860;SDS011;35761;48.826;9.238;2022-12-07T06:50:01;14.02;;;8.25;;
49860;SDS011;35761;48.826;9.238;2022-12-07T06:52:32;14.15;;;9.00;;
49860;SDS011;35761;48.826;9.238;2022-12-07T06:55:01;16.10;;;8.90;;
49860;SDS011;35761;48.826;9.238;2022-12-07T06:57:30;13.07;;;8.50;;
49860;SDS011;35761;48.826;9.238;2022-12-07T07:00:00;15.65;;;8.90;;
49860;SDS011;35761;48.826;9.238;2022-12-07T07:02:30;15.30;;;7.43;;
49860;SDS011;35761;48.826;9.238;2022-12-07T07:04:59;13.05;;;8.38;;
49860;SDS011;35761;48.826;9.238;2022-12-07T07:07:28;12.48;;;7.65;;
49860;SDS011;35761;48.826;9.238;2022-12-07T07:10:07;11.85;;;7.32;;
49860;SDS011;35761;48.826;9.238;2022-12-07T07:12:36;11.55;;;6.85;;
49860;SDS011;35761;48.826;9.238;2022-12-07T07:15:07;35.65;;;19.27;;
49860;SDS011;35761;48.826;9.238;2022-12-07T07:17:38;15.90;;;9.55;;
49860;SDS011;35761;48.826;9.238;2022-12-07T07:20:08;13.73;;;8.15;;
49860;SDS011;35761;48.826;9.238;2022-12-07T07:22:37;19.17;;;7.90;;
49860;SDS011;35761;48.826;9.238;2022-12-07T07:25:06;13.75;;;6.80;;
49860;SDS011;35761;48.826;9.238;2022-12-07T07:27:35;14.60;;;6.97;;
49860;SDS011;35761;48.826;9.238;2022-12-07T07:30:05;11.80;;;6.80;;
49860;SDS011;35761;48.826;9.238;2022-12-07T07:32:35;9.88;;;6.32;;
49860;SDS011;35761;48.826;9.238;2022-12-07T07:35:04;16.08;;;6.60;;
49860;SDS011;35761;48.826;9.238;2022-12-07T07:37:34;11.85;;;6.35;;
49860;SDS011;35761;48.826;9.238;2022-12-07T07:40:03;11.23;;;6.30;;
49860;SDS011;35761;48.826;9.238;2022-12-07T07:42:32;10.38;;;6.03;;
49860;SDS011;35761;48.826;9.238;2022-12-07T07:45:01;9.60;;;6.45;;
49860;SDS011;35761;48.826;9.238;2022-12-07T07:47:32;11.95;;;6.45;;
49860;SDS011;35761;48.826;9.238;2022-12-07T07:50:01;19.35;;;7.28;;
49860;SDS011;35761;48.826;9.238;2022-12-07T07:52:31;14.98;;;8.00;;
49860;SDS011;35761;48.826;9.238;2022-12-07T07:55:01;15.43;;;7.65;;
49860;SDS011;35761;48.826;9.238;2022-12-07T07:57:30;16.92;;;7.75;;
49860;SDS011;35761;48.826;9.238;2022-12-07T07:59:59;12.00;;;6.80;;
49860;SDS011;35761;48.826;9.238;2022-12-07T08:02:39;11.98;;;7.55;;
49860;SDS011;35761;48.826;9.238;2022-12-07T08:05:09;12.40;;;6.72;;
49860;SDS011;35761;48.826;9.238;2022-12-07T08:07:39;17.38;;;6.93;;
49860;SDS011;35761;48.826;9.238;2022-12-07T08:10:08;10.93;;;5.68;;
49860;SDS011;35761;48.826;9.238;2022-12-07T08:12:39;14.48;;;6.45;;
49860;SDS011;35761;48.826;9.238;2022-12-07T08:15:23;11.50;;;6.03;;
49860;SDS011;35761;48.826;9.238;2022-12-07T08:17:54;11.30;;;6.20;;
49860;SDS011;35761;48.826;9.238;2022-12-07T08:20:23;13.68;;;5.45;;
49860;SDS011;35761;48.826;9.238;2022-12-07T08:22:52;10.15;;;5.47;;
49860;SDS011;35761;48.826;9.238;2022-12-07T08:25:21;10.93;;;5.35;;
49860;SDS011;35761;48.826;9.238;2022-12-07T08:27:50;8.75;;;6.03;;
49860;SDS011;35761;48.826;9.238;2022-12-07T08:30:19;11.18;;;5.60;;
49860;SDS011;35761;48.826;9.238;2022-12-07T08:32:48;12.30;;;7.72;;
49860;SDS011;35761;48.826;9.238;2022-12-07T08:35:19;13.60;;;7.45;;
49860;SDS011;35761;48.826;9.238;2022-12-07T08:37:48;7.63;;;5.45;;
49860;SDS011;35761;48.826;9.238;2022-12-07T08:40:17;11.35;;;5.78;;
49860;SDS011;35761;48.826;9.238;2022-12-07T08:42:50;9.13;;;5.35;;
49860;SDS011;35761;48.826;9.238;2022-12-07T08:45:19;8.55;;;5.43;;
49860;SDS011;35761;48.826;9.238;2022-12-07T08:47:53;13.40;;;5.60;;
49860;SDS011;35761;48.826;9.238;2022-12-07T08:50:26;13.23;;;5.28;;
49860;SDS011;35761;48.826;9.238;2022-12-07T08:52:57;12.27;;;5.40;;
49860;SDS011;35761;48.826;9.238;2022-12-07T08:55:27;9.68;;;5.50;;
49860;SDS011;35761;48.826;9.238;2022-12-07T08:57:57;8.90;;;5.32;;
49860;SDS011;35761;48.826;9.238;2022-12-07T09:00:26;9.13;;;6.18;;
49860;SDS011;35761;48.826;9.238;2022-12-07T09:02:55;10.48;;;4.70;;
49860;SDS011;35761;48.826;9.238;2022-12-07T09:05:24;9.93;;;6.00;;
49860;SDS011;35761;48.826;9.238;2022-12-07T09:07:55;14.13;;;5.72;;
49860;SDS011;35761;48.826;9.238;2022-12-07T09:10:27;11.82;;;5.30;;
49860;SDS011;35761;48.826;9.238;2022-12-07T09:12:56;11.85;;;5.30;;
49860;SDS011;35761;48.826;9.238;2022-12-07T09:15:27;12.65;;;5.47;;
49860;SDS011;35761;48.826;9.238;2022-12-07T09:17:59;11.77;;;5.75;;
49860;SDS011;35761;48.826;9.238;2022-12-07T09:20:29;17.52;;;9.50;;
49860;SDS011;35761;48.826;9.238;2022-12-07T09:22:58;8.38;;;5.00;;
49860;SDS011;35761;48.826;9.238;2022-12-07T09:25:27;9.43;;;5.90;;
49860;SDS011;35761;48.826;9.238;2022-12-07T09:27:56;7.82;;;4.80;;
49860;SDS011;35761;48.826;9.238;2022-12-07T09:30:26;11.23;;;5.43;;
49860;SDS011;35761;48.826;9.238;2022-12-07T09:32:56;11.35;;;5.30;;
49860;SDS011;35761;48.826;9.238;2022-12-07T09:35:25;10.90;;;4.20;;
49860;SDS011;35761;48.826;9.238;2022-12-07T09:37:56;7.13;;;4.55;;
49860;SDS011;35761;48.826;9.238;2022-12-07T09:40:25;10.95;;;4.15;;
49860;SDS011;35761;48.826;9.238;2022-12-07T09:42:54;5.85;;;3.97;;
49860;SDS011;35761;48.826;9.238;2022-12-07T09:45:24;5.95;;;3.92;;
49860;SDS011;35761;48.826;9.238;2022-12-07T09:47:54;6.85;;;3.90;;
49860;SDS011;35761;48.826;9.238;2022-12-07T09:50:24;8.00;;;4.40;;
49860;SDS011;35761;48.826;9.238;2022-12-07T09:55:42;9.32;;;4.22;;
49860;SDS011;35761;48.826;9.238;2022-12-07T09:58:12;6.30;;;3.97;;
49860;SDS011;35761;48.826;9.238;2022-12-07T10:00:47;11.32;;;4.07;;
49860;SDS011;35761;48.826;9.238;2022-12-07T10:03:16;26.33;;;3.92;;
49860;SDS011;35761;48.826;9.238;2022-12-07T10:05:46;7.00;;;3.95;;
49860;SDS011;35761;48.826;9.238;2022-12-07T10:08:18;9.77;;;3.53;;
49860;SDS011;35761;48.826;9.238;2022-12-07T10:10:49;5.28;;;3.22;;
49860;SDS011;35761;48.826;9.238;2022-12-07T10:13:21;6.03;;;3.65;;
49860;SDS011;35761;48.826;9.238;2022-12-07T10:15:52;5.53;;;3.40;;
49860;SDS011;35761;48.826;9.238;2022-12-07T10:18:31;10.45;;;5.50;;
49860;SDS011;35761;48.826;9.238;2022-12-07T10:21:09;6.25;;;3.92;;
49860;SDS011;35761;48.826;9.238;2022-12-07T10:23:42;7.15;;;4.07;;
49860;SDS011;35761;48.826;9.238;2022-12-07T10:26:28;7.70;;;3.92;;
49860;SDS011;35761;48.826;9.238;2022-12-07T10:28:59;10.88;;;5.13;;
49860;SDS011;35761;48.826;9.238;2022-12-07T10:31:28;7.38;;;3.67;;
49860;SDS011;35761;48.826;9.238;2022-12-07T10:33:58;6.63;;;3.70;;
49860;SDS011;35761;48.826;9.238;2022-12-07T10:36:33;10.07;;;4.22;;
49860;SDS011;35761;48.826;9.238;2022-12-07T10:41:49;7.80;;;4.10;;
49860;SDS011;35761;48.826;9.238;2022-12-07T10:44:22;9.10;;;4.40;;
49860;SDS011;35761;48.826;9.238;2022-12-07T10:47:01;9.02;;;4.50;;
49860;SDS011;35761;48.826;9.238;2022-12-07T10:49:47;9.93;;;4.75;;
49860;SDS011;35761;48.826;9.238;2022-12-07T10:52:29;9.00;;;4.63;;
49860;SDS011;35761;48.826;9.238;2022-12-07T10:55:11;11.38;;;4.93;;
49860;SDS011;35761;48.826;9.238;2022-12-07T10:57:47;9.95;;;5.75;;
49860;SDS011;35761;48.826;9.238;2022-12-07T11:00:37;5.53;;;3.67;;
49860;SDS011;35761;48.826;9.238;2022-12-07T11:03:18;10.95;;;3.90;;
49860;SDS011;35761;48.826;9.238;2022-12-07T11:05:52;7.35;;;4.03;;
49860;SDS011;35761;48.826;9.238;2022-12-07T11:08:29;7.60;;;5.00;;
49860;SDS011;35761;48.826;9.238;2022-12-07T11:11:09;12.20;;;4.78;;
49860;SDS011;35761;48.826;9.238;2022-12-07T11:13:42;7.75;;;4.70;;
49860;SDS011;35761;48.826;9.238;2022-12-07T11:16:23;7.97;;;4.45;;
49860;SDS011;35761;48.826;9.238;2022-12-07T11:18:59;8.40;;;4.55;;
49860;SDS011;35761;48.826;9.238;2022-12-07T11:21:35;7.00;;;3.85;;
49860;SDS011;35761;48.826;9.238;2022-12-07T11:24:10;6.03;;;3.60;;
49860;SDS011;35761;48.826;9.238;2022-12-07T11:26:48;5.35;;;3.60;;
49860;SDS011;35761;48.826;9.238;2022-12-07T11:29:32;4.88;;;3.22;;
49860;SDS011;35761;48.826;9.238;2022-12-07T11:32:13;6.43;;;4.38;;
49860;SDS011;35761;48.826;9.238;2022-12-07T11:34:48;5.32;;;3.58;;
49860;SDS011;35761;48.826;9.238;2022-12-07T11:37:24;5.30;;;3.50;;
49860;SDS011;35761;48.826;9.238;2022-12-07T11:40:05;6.30;;;3.35;;
49860;SDS011;35761;48.826;9.238;2022-12-07T11:42:45;5.93;;;3.75;;
49860;SDS011;35761;48.826;9.238;2022-12-07T11:45:19;6.82;;;3.92;;
49860;SDS011;35761;48.826;9.238;2022-12-07T11:50:23;7.68;;;4.72;;
49860;SDS011;35761;48.826;9.238;2022-12-07T11:52:55;7.85;;;4.95;;
49860;SDS011;35761;48.826;9.238;2022-12-07T11:55:27;8.40;;;4.55;;
49860;SDS011;35761;48.826;9.238;2022-12-07T11:58:01;9.45;;;4.95;;
49860;SDS011;35761;48.826;9.238;2022-12-07T12:00:32;11.07;;;5.60;;
49860;SDS011;35761;48.826;9.238;2022-12-07T12:03:02;10.80;;;5.78;;
49860;SDS011;35761;48.826;9.238;2022-12-07T12:05:35;10.00;;;6.75;;
49860;SDS011;35761;48.826;9.238;2022-12-07T12:08:10;13.25;;;5.78;;
49860;SDS011;35761;48.826;9.238;2022-12-07T12:11:03;9.93;;;6.03;;
49860;SDS011;35761;48.826;9.238;2022-12-07T12:13:47;10.30;;;5.80;;
49860;SDS011;35761;48.826;9.238;2022-12-07T12:16:58;14.68;;;6.88;;
49860;SDS011;35761;48.826;9.238;2022-12-07T12:19:41;10.05;;;6.05;;
49860;SDS011;35761;48.826;9.238;2022-12-07T12:22:12;12.27;;;6.25;;
49860;SDS011;35761;48.826;9.238;2022-12-07T12:24:45;9.63;;;5.72;;
49860;SDS011;35761;48.826;9.238;2022-12-07T12:27:19;9.20;;;5.80;;
49860;SDS011;35761;48.826;9.238;2022-12-07T12:29:53;9.23;;;5.95;;
49860;SDS011;35761;48.826;9.238;2022-12-07T12:32:27;9.32;;;6.60;;
49860;SDS011;35761;48.826;9.238;2022-12-07T12:35:02;9.00;;;5.85;;
49860;SDS011;35761;48.826;9.238;2022-12-07T12:37:53;11.70;;;5.35;;
49860;SDS011;35761;48.826;9.238;2022-12-07T12:40:39;8.30;;;5.43;;
49860;SDS011;35761;48.826;9.238;2022-12-07T12:58:29;8.98;;;5.63;;
49860;SDS011;35761;48.826;9.238;2022-12-07T13:10:32;8.18;;;4.70;;
49860;SDS011;35761;48.826;9.238;2022-12-07T13:13:03;8.88;;;5.70;;
49860;SDS011;35761;48.826;9.238;2022-12-07T13:16:35;8.15;;;5.50;;
49860;SDS011;35761;48.826;9.238;2022-12-07T13:25:30;13.77;;;6.20;;
49860;SDS011;35761;48.826;9.238;2022-12-07T13:28:08;9.75;;;6.15;;
49860;SDS011;35761;48.826;9.238;2022-12-07T13:30:45;8.98;;;5.80;;
49860;SDS011;35761;48.826;9.238;2022-12-07T13:33:17;10.80;;;6.25;;
49860;SDS011;35761;48.826;9.238;2022-12-07T13:35:47;10.73;;;6.53;;
49860;SDS011;35761;48.826;9.238;2022-12-07T13:38:20;9.93;;;6.15;;
49860;SDS011;35761;48.826;9.238;2022-12-07T13:41:02;9.57;;;6.50;;
49860;SDS011;35761;48.826;9.238;2022-12-07T13:43:41;9.63;;;5.90;;
49860;SDS011;35761;48.826;9.238;2022-12-07T13:46:15;11.65;;;6.45;;
49860;SDS011;35761;48.826;9.238;2022-12-07T13:48:48;10.88;;;5.78;;
49860;SDS011;35761;48.826;9.238;2022-12-07T13:51:19;10.98;;;6.45;;
49860;SDS011;35761;48.826;9.238;2022-12-07T13:53:51;13.70;;;7.47;;
49860;SDS011;35761;48.826;9.238;2022-12-07T13:56:22;13.80;;;7.72;;
49860;SDS011;35761;48.826;9.238;2022-12-07T13:58:53;13.50;;;7.15;;
49860;SDS011;35761;48.826;9.238;2022-12-07T14:01:23;11.30;;;7.75;;
49860;SDS011;35761;48.826;9.238;2022-12-07T14:03:52;15.55;;;8.27;;
49860;SDS011;35761;48.826;9.238;2022-12-07T14:06:23;13.32;;;7.20;;
49860;SDS011;35761;48.826;9.238;2022-12-07T14:09:07;11.13;;;7.43;;
49860;SDS011;35761;48.826;9.238;2022-12-07T14:11:37;13.43;;;7.63;;
49860;SDS011;35761;48.826;9.238;2022-12-07T14:14:10;14.43;;;6.78;;
49860;SDS011;35761;48.826;9.238;2022-12-07T14:16:43;12.70;;;7.47;;
49860;SDS011;35761;48.826;9.238;2022-12-07T14:22:19;11.27;;;6.65;;
49860;SDS011;35761;48.826;9.238;2022-12-07T14:25:00;12.68;;;6.82;;
49860;SDS011;35761;48.826;9.238;2022-12-07T14:27:48;14.10;;;8.00;;
49860;SDS011;35761;48.826;9.238;2022-12-07T14:30:19;11.20;;;6.47;;
49860;SDS011;35761;48.826;9.238;2022-12-07T14:32:50;11.88;;;6.70;;
49860;SDS011;35761;48.826;9.238;2022-12-07T14:35:21;13.40;;;7.45;;
49860;SDS011;35761;48.826;9.238;2022-12-07T14:37:50;11.38;;;7.00;;
49860;SDS011;35761;48.826;9.238;2022-12-07T14:40:22;12.10;;;7.53;;
49860;SDS011;35761;48.826;9.238;2022-12-07T14:42:52;14.40;;;7.93;;
49860;SDS011;35761;48.826;9.238;2022-12-07T14:45:23;12.85;;;7.75;;
49860;SDS011;35761;48.826;9.238;2022-12-07T14:47:52;12.73;;;7.55;;
49860;SDS011;35761;48.826;9.238;2022-12-07T14:50:41;10.90;;;7.22;;
49860;SDS011;35761;48.826;9.238;2022-12-07T14:53:33;12.35;;;7.72;;
49860;SDS011;35761;48.826;9.238;2022-12-07T14:56:06;15.65;;;7.20;;
49860;SDS011;35761;48.826;9.238;2022-12-07T14:58:35;12.68;;;7.18;;
49860;SDS011;35761;48.826;9.238;2022-12-07T15:01:04;12.65;;;8.02;;
49860;SDS011;35761;48.826;9.238;2022-12-07T15:03:33;13.43;;;8.20;;
49860;SDS011;35761;48.826;9.238;2022-12-07T15:06:04;12.98;;;8.35;;
49860;SDS011;35761;48.826;9.238;2022-12-07T15:08:33;13.07;;;7.38;;
49860;SDS011;35761;48.826;9.238;2022-12-07T15:11:02;12.93;;;7.43;;
49860;SDS011;35761;48.826;9.238;2022-12-07T15:13:32;12.15;;;8.38;;
49860;SDS011;35761;48.826;9.238;2022-12-07T15:16:19;17.25;;;9.15;;
49860;SDS011;35761;48.826;9.238;2022-12-07T15:18:48;17.45;;;9.60;;
49860;SDS011;35761;48.826;9.238;2022-12-07T15:21:38;18.13;;;9.38;;
49860;SDS011;35761;48.826;9.238;2022-12-07T15:24:07;16.77;;;10.27;;
49860;SDS011;35761;48.826;9.238;2022-12-07T15:26:37;16.38;;;9.50;;
49860;SDS011;35761;48.826;9.238;2022-12-07T15:29:07;15.82;;;9.93;;
49860;SDS011;35761;48.826;9.238;2022-12-07T15:31:37;16.88;;;10.40;;
49860;SDS011;35761;48.826;9.238;2022-12-07T15:34:22;19.70;;;11.00;;
49860;SDS011;35761;48.826;9.238;2022-12-07T15:36:52;16.13;;;10.80;;
49860;SDS011;35761;48.826;9.238;2022-12-07T15:39:21;15.40;;;9.77;;
49860;SDS011;35761;48.826;9.238;2022-12-07T15:41:50;16.00;;;9.27;;
49860;SDS011;35761;48.826;9.238;2022-12-07T15:44:20;15.25;;;9.88;;
49860;SDS011;35761;48.826;9.238;2022-12-07T15:47:06;17.67;;;9.63;;
49860;SDS011;35761;48.826;9.238;2022-12-07T15:49:35;16.88;;;10.27;;
49860;SDS011;35761;48.826;9.238;2022-12-07T15:52:04;17.42;;;9.85;;
49860;SDS011;35761;48.826;9.238;2022-12-07T15:54:33;19.25;;;9.98;;